sensor_id;sensor_type;location;lat;lon;timestamp;P1;durP1;ratioP1;P2;durP2;ratioP2
79261;SDS011;68699;48.220;16.358;2023-09-19T00:00:23;0.93;;;0.60;;
79261;SDS011;68699;48.220;16.358;2023-09-19T00:02:55;1.73;;;0.60;;
79261;SDS011;68699;48.220;16.358;2023-09-19T00:05:28;0.67;;;0.60;;
79261;SDS011;68699;48.220;16.358;2023-09-19T00:07:55;0.77;;;0.60;;
79261;SDS011;68699;48.220;16.358;2023-09-19T00:10:23;0.70;;;0.70;;
79261;SDS011;68699;48.220;16.358;2023-09-19T00:12:53;0.87;;;0.67;;
79261;SDS011;68699;48.220;16.358;2023-09-19T00:15:22;1.37;;;1.00;;
79261;SDS011;68699;48.220;16.358;2023-09-19T00:17:48;1.87;;;0.87;;
79261;SDS011;68699;48.220;16.358;2023-09-19T00:20:17;1.80;;;0.60;;
79261;SDS011;68699;48.220;16.358;2023-09-19T00:22:43;1.60;;;0.70;;
79261;SDS011;68699;48.220;16.358;2023-09-19T00:25:10;1.17;;;0.80;;
79261;SDS011;68699;48.220;16.358;2023-09-19T00:27:37;0.73;;;0.73;;
79261;SDS011;68699;48.220;16.358;2023-09-19T00:30:10;0.83;;;0.67;;
79261;SDS011;68699;48.220;16.358;2023-09-19T00:32:49;1.00;;;1.00;;
79261;SDS011;68699;48.220;16.358;2023-09-19T00:35:19;0.83;;;0.83;;
79261;SDS011;68699;48.220;16.358;2023-09-19T00:37:45;0.93;;;0.83;;
79261;SDS011;68699;48.220;16.358;2023-09-19T00:40:11;0.77;;;0.77;;
79261;SDS011;68699;48.220;16.358;2023-09-19T00:42:40;0.97;;;0.90;;
79261;SDS011;68699;48.220;16.358;2023-09-19T00:45:07;0.87;;;0.67;;
79261;SDS011;68699;48.220;16.358;2023-09-19T00:47:35;0.70;;;0.70;;
79261;SDS011;68699;48.220;16.358;2023-09-19T00:50:03;0.93;;;0.63;;
79261;SDS011;68699;48.220;16.358;2023-09-19T00:52:31;0.80;;;0.70;;
79261;SDS011;68699;48.220;16.358;2023-09-19T00:54:57;0.67;;;0.60;;
79261;SDS011;68699;48.220;16.358;2023-09-19T00:57:25;1.00;;;0.90;;
79261;SDS011;68699;48.220;16.358;2023-09-19T00:59:51;0.80;;;0.70;;
79261;SDS011;68699;48.220;16.358;2023-09-19T01:02:19;0.73;;;0.70;;
79261;SDS011;68699;48.220;16.358;2023-09-19T01:04:46;1.37;;;0.63;;
79261;SDS011;68699;48.220;16.358;2023-09-19T01:07:12;0.70;;;0.70;;
79261;SDS011;68699;48.220;16.358;2023-09-19T01:09:40;0.60;;;0.60;;
79261;SDS011;68699;48.220;16.358;2023-09-19T01:12:06;0.90;;;0.70;;
79261;SDS011;68699;48.220;16.358;2023-09-19T01:17:03;0.93;;;0.40;;
79261;SDS011;68699;48.220;16.358;2023-09-19T01:27:17;0.57;;;0.57;;
79261;SDS011;68699;48.220;16.358;2023-09-19T01:29:47;0.80;;;0.70;;
79261;SDS011;68699;48.220;16.358;2023-09-19T01:32:17;0.90;;;0.70;;
79261;SDS011;68699;48.220;16.358;2023-09-19T01:34:47;0.77;;;0.77;;
79261;SDS011;68699;48.220;16.358;2023-09-19T01:37:17;1.53;;;0.57;;
79261;SDS011;68699;48.220;16.358;2023-09-19T01:39:59;0.60;;;0.60;;
79261;SDS011;68699;48.220;16.358;2023-09-19T01:42:44;1.07;;;0.97;;
79261;SDS011;68699;48.220;16.358;2023-09-19T01:52:46;0.80;;;0.63;;
79261;SDS011;68699;48.220;16.358;2023-09-19T01:55:14;0.80;;;0.80;;
79261;SDS011;68699;48.220;16.358;2023-09-19T01:57:51;1.47;;;0.77;;
79261;SDS011;68699;48.220;16.358;2023-09-19T02:00:19;2.83;;;1.10;;
79261;SDS011;68699;48.220;16.358;2023-09-19T02:02:48;0.70;;;0.70;;
79261;SDS011;68699;48.220;16.358;2023-09-19T02:05:21;1.90;;;1.03;;
79261;SDS011;68699;48.220;16.358;2023-09-19T02:07:53;1.03;;;0.87;;
79261;SDS011;68699;48.220;16.358;2023-09-19T02:10:19;2.10;;;1.00;;
79261;SDS011;68699;48.220;16.358;2023-09-19T02:12:45;1.00;;;0.90;;
79261;SDS011;68699;48.220;16.358;2023-09-19T02:15:11;0.90;;;0.87;;
79261;SDS011;68699;48.220;16.358;2023-09-19T02:17:37;1.00;;;0.83;;
79261;SDS011;68699;48.220;16.358;2023-09-19T02:20:03;1.53;;;0.70;;
79261;SDS011;68699;48.220;16.358;2023-09-19T02:22:35;0.83;;;0.80;;
79261;SDS011;68699;48.220;16.358;2023-09-19T02:25:01;1.43;;;0.80;;
79261;SDS011;68699;48.220;16.358;2023-09-19T02:27:30;0.97;;;0.80;;
79261;SDS011;68699;48.220;16.358;2023-09-19T02:29:56;1.30;;;1.20;;
79261;SDS011;68699;48.220;16.358;2023-09-19T02:32:23;1.77;;;0.87;;
79261;SDS011;68699;48.220;16.358;2023-09-19T02:34:49;0.80;;;0.80;;
79261;SDS011;68699;48.220;16.358;2023-09-19T02:37:16;0.80;;;0.80;;
79261;SDS011;68699;48.220;16.358;2023-09-19T02:39:44;1.20;;;0.70;;
79261;SDS011;68699;48.220;16.358;2023-09-19T02:42:10;0.97;;;0.60;;
79261;SDS011;68699;48.220;16.358;2023-09-19T02:44:36;0.60;;;0.60;;
79261;SDS011;68699;48.220;16.358;2023-09-19T02:47:03;0.70;;;0.70;;
79261;SDS011;68699;48.220;16.358;2023-09-19T02:49:29;2.57;;;0.80;;
79261;SDS011;68699;48.220;16.358;2023-09-19T02:51:55;1.17;;;0.60;;
79261;SDS011;68699;48.220;16.358;2023-09-19T02:54:23;1.53;;;0.50;;
79261;SDS011;68699;48.220;16.358;2023-09-19T02:56:49;1.30;;;0.80;;
79261;SDS011;68699;48.220;16.358;2023-09-19T02:59:15;1.60;;;0.90;;
79261;SDS011;68699;48.220;16.358;2023-09-19T03:01:45;1.13;;;0.77;;
79261;SDS011;68699;48.220;16.358;2023-09-19T03:04:14;2.07;;;1.00;;
79261;SDS011;68699;48.220;16.358;2023-09-19T03:06:46;1.00;;;0.90;;
79261;SDS011;68699;48.220;16.358;2023-09-19T03:09:16;1.00;;;0.93;;
79261;SDS011;68699;48.220;16.358;2023-09-19T03:11:42;0.70;;;0.70;;
79261;SDS011;68699;48.220;16.358;2023-09-19T03:14:09;1.00;;;0.83;;
79261;SDS011;68699;48.220;16.358;2023-09-19T03:16:35;1.83;;;1.00;;
79261;SDS011;68699;48.220;16.358;2023-09-19T03:19:03;0.80;;;0.73;;
79261;SDS011;68699;48.220;16.358;2023-09-19T03:21:30;0.77;;;0.77;;
79261;SDS011;68699;48.220;16.358;2023-09-19T03:23:56;1.10;;;1.00;;
79261;SDS011;68699;48.220;16.358;2023-09-19T03:26:22;1.33;;;1.17;;
79261;SDS011;68699;48.220;16.358;2023-09-19T03:28:48;1.10;;;1.00;;
79261;SDS011;68699;48.220;16.358;2023-09-19T03:31:14;1.93;;;1.00;;
79261;SDS011;68699;48.220;16.358;2023-09-19T03:33:40;0.93;;;0.90;;
79261;SDS011;68699;48.220;16.358;2023-09-19T03:36:07;1.00;;;0.90;;
79261;SDS011;68699;48.220;16.358;2023-09-19T03:38:33;1.70;;;1.00;;
79261;SDS011;68699;48.220;16.358;2023-09-19T03:40:59;0.90;;;0.90;;
79261;SDS011;68699;48.220;16.358;2023-09-19T03:43:26;2.13;;;1.10;;
79261;SDS011;68699;48.220;16.358;2023-09-19T03:45:53;1.70;;;1.20;;
79261;SDS011;68699;48.220;16.358;2023-09-19T03:48:19;1.53;;;1.20;;
79261;SDS011;68699;48.220;16.358;2023-09-19T03:50:47;1.00;;;1.00;;
79261;SDS011;68699;48.220;16.358;2023-09-19T03:53:13;1.23;;;1.00;;
79261;SDS011;68699;48.220;16.358;2023-09-19T03:55:39;1.20;;;1.10;;
79261;SDS011;68699;48.220;16.358;2023-09-19T03:58:05;1.53;;;1.20;;
79261;SDS011;68699;48.220;16.358;2023-09-19T04:00:31;1.13;;;1.03;;
79261;SDS011;68699;48.220;16.358;2023-09-19T04:02:57;1.53;;;1.00;;
79261;SDS011;68699;48.220;16.358;2023-09-19T04:05:23;1.37;;;1.23;;
79261;SDS011;68699;48.220;16.358;2023-09-19T04:07:49;1.80;;;1.30;;
79261;SDS011;68699;48.220;16.358;2023-09-19T04:10:16;1.20;;;1.10;;
79261;SDS011;68699;48.220;16.358;2023-09-19T04:12:54;1.37;;;1.13;;
79261;SDS011;68699;48.220;16.358;2023-09-19T04:15:21;1.43;;;1.23;;
79261;SDS011;68699;48.220;16.358;2023-09-19T04:17:48;1.43;;;1.33;;
79261;SDS011;68699;48.220;16.358;2023-09-19T04:20:14;1.80;;;1.10;;
79261;SDS011;68699;48.220;16.358;2023-09-19T04:22:40;2.00;;;1.10;;
79261;SDS011;68699;48.220;16.358;2023-09-19T04:25:07;1.50;;;1.33;;
79261;SDS011;68699;48.220;16.358;2023-09-19T04:27:33;2.17;;;1.30;;
79261;SDS011;68699;48.220;16.358;2023-09-19T04:29:59;1.20;;;1.07;;
79261;SDS011;68699;48.220;16.358;2023-09-19T04:32:29;1.77;;;1.67;;
79261;SDS011;68699;48.220;16.358;2023-09-19T04:34:57;1.40;;;1.20;;
79261;SDS011;68699;48.220;16.358;2023-09-19T04:37:25;1.80;;;1.30;;
79261;SDS011;68699;48.220;16.358;2023-09-19T04:39:51;1.90;;;1.70;;
79261;SDS011;68699;48.220;16.358;2023-09-19T04:42:17;2.10;;;1.40;;
79261;SDS011;68699;48.220;16.358;2023-09-19T04:44:44;1.30;;;1.20;;
79261;SDS011;68699;48.220;16.358;2023-09-19T04:47:10;1.40;;;1.30;;
79261;SDS011;68699;48.220;16.358;2023-09-19T04:49:37;3.03;;;1.60;;
79261;SDS011;68699;48.220;16.358;2023-09-19T04:52:05;1.20;;;1.20;;
79261;SDS011;68699;48.220;16.358;2023-09-19T04:54:31;2.40;;;1.70;;
79261;SDS011;68699;48.220;16.358;2023-09-19T04:56:59;1.77;;;1.20;;
79261;SDS011;68699;48.220;16.358;2023-09-19T04:59:25;1.43;;;1.30;;
79261;SDS011;68699;48.220;16.358;2023-09-19T05:01:53;1.70;;;1.43;;
79261;SDS011;68699;48.220;16.358;2023-09-19T05:04:19;2.37;;;1.50;;
79261;SDS011;68699;48.220;16.358;2023-09-19T05:06:45;5.10;;;1.67;;
79261;SDS011;68699;48.220;16.358;2023-09-19T05:09:11;1.70;;;1.50;;
79261;SDS011;68699;48.220;16.358;2023-09-19T05:11:38;3.37;;;1.70;;
79261;SDS011;68699;48.220;16.358;2023-09-19T05:14:04;1.70;;;1.60;;
79261;SDS011;68699;48.220;16.358;2023-09-19T05:16:30;2.90;;;1.60;;
79261;SDS011;68699;48.220;16.358;2023-09-19T05:18:56;2.93;;;1.50;;
79261;SDS011;68699;48.220;16.358;2023-09-19T05:21:24;2.37;;;1.80;;
79261;SDS011;68699;48.220;16.358;2023-09-19T05:23:53;1.70;;;1.60;;
79261;SDS011;68699;48.220;16.358;2023-09-19T05:26:19;2.33;;;2.13;;
79261;SDS011;68699;48.220;16.358;2023-09-19T05:28:46;3.03;;;1.90;;
79261;SDS011;68699;48.220;16.358;2023-09-19T05:31:13;2.80;;;1.87;;
79261;SDS011;68699;48.220;16.358;2023-09-19T05:33:40;2.47;;;1.87;;
79261;SDS011;68699;48.220;16.358;2023-09-19T05:36:07;3.90;;;2.30;;
79261;SDS011;68699;48.220;16.358;2023-09-19T05:38:35;2.00;;;1.80;;
79261;SDS011;68699;48.220;16.358;2023-09-19T05:41:02;2.53;;;1.80;;
79261;SDS011;68699;48.220;16.358;2023-09-19T05:43:28;3.33;;;2.20;;
79261;SDS011;68699;48.220;16.358;2023-09-19T05:45:54;3.90;;;2.30;;
79261;SDS011;68699;48.220;16.358;2023-09-19T05:48:21;2.73;;;1.87;;
79261;SDS011;68699;48.220;16.358;2023-09-19T05:50:47;2.90;;;1.90;;
79261;SDS011;68699;48.220;16.358;2023-09-19T05:53:14;2.27;;;2.07;;
79261;SDS011;68699;48.220;16.358;2023-09-19T05:55:40;3.97;;;2.10;;
79261;SDS011;68699;48.220;16.358;2023-09-19T05:58:06;3.03;;;2.00;;
79261;SDS011;68699;48.220;16.358;2023-09-19T06:00:33;3.97;;;1.90;;
79261;SDS011;68699;48.220;16.358;2023-09-19T06:02:59;3.37;;;2.17;;
79261;SDS011;68699;48.220;16.358;2023-09-19T06:05:27;4.10;;;1.87;;
79261;SDS011;68699;48.220;16.358;2023-09-19T06:07:55;2.83;;;2.00;;
79261;SDS011;68699;48.220;16.358;2023-09-19T06:10:25;3.07;;;1.80;;
79261;SDS011;68699;48.220;16.358;2023-09-19T06:12:52;3.60;;;1.93;;
79261;SDS011;68699;48.220;16.358;2023-09-19T06:15:20;3.43;;;1.77;;
79261;SDS011;68699;48.220;16.358;2023-09-19T06:17:50;1.80;;;1.70;;
79261;SDS011;68699;48.220;16.358;2023-09-19T06:20:16;3.00;;;1.60;;
79261;SDS011;68699;48.220;16.358;2023-09-19T06:22:43;2.83;;;1.80;;
79261;SDS011;68699;48.220;16.358;2023-09-19T06:25:10;1.87;;;1.77;;
79261;SDS011;68699;48.220;16.358;2023-09-19T06:27:37;3.43;;;1.73;;
79261;SDS011;68699;48.220;16.358;2023-09-19T06:30:04;2.67;;;1.93;;
79261;SDS011;68699;48.220;16.358;2023-09-19T06:32:31;3.23;;;1.70;;
79261;SDS011;68699;48.220;16.358;2023-09-19T06:34:57;2.43;;;1.50;;
79261;SDS011;68699;48.220;16.358;2023-09-19T06:37:26;6.57;;;1.97;;
79261;SDS011;68699;48.220;16.358;2023-09-19T06:39:52;2.00;;;1.80;;
79261;SDS011;68699;48.220;16.358;2023-09-19T06:42:18;2.20;;;1.70;;
79261;SDS011;68699;48.220;16.358;2023-09-19T06:44:45;3.60;;;1.93;;
79261;SDS011;68699;48.220;16.358;2023-09-19T06:47:11;1.70;;;1.37;;
79261;SDS011;68699;48.220;16.358;2023-09-19T06:49:37;1.73;;;1.63;;
79261;SDS011;68699;48.220;16.358;2023-09-19T06:52:03;3.67;;;1.70;;
79261;SDS011;68699;48.220;16.358;2023-09-19T06:54:29;3.57;;;1.77;;
79261;SDS011;68699;48.220;16.358;2023-09-19T06:56:57;2.23;;;2.03;;
79261;SDS011;68699;48.220;16.358;2023-09-19T06:59:24;2.33;;;1.90;;
79261;SDS011;68699;48.220;16.358;2023-09-19T07:01:50;3.00;;;1.73;;
79261;SDS011;68699;48.220;16.358;2023-09-19T07:04:16;2.03;;;1.87;;
79261;SDS011;68699;48.220;16.358;2023-09-19T07:06:44;2.57;;;1.67;;
79261;SDS011;68699;48.220;16.358;2023-09-19T07:09:11;2.60;;;1.60;;
79261;SDS011;68699;48.220;16.358;2023-09-19T07:11:37;2.67;;;1.87;;
79261;SDS011;68699;48.220;16.358;2023-09-19T07:14:03;4.00;;;1.90;;
79261;SDS011;68699;48.220;16.358;2023-09-19T07:16:30;2.53;;;1.90;;
79261;SDS011;68699;48.220;16.358;2023-09-19T07:18:56;2.90;;;1.77;;
79261;SDS011;68699;48.220;16.358;2023-09-19T07:21:23;1.73;;;1.63;;
79261;SDS011;68699;48.220;16.358;2023-09-19T07:23:49;2.50;;;1.80;;
79261;SDS011;68699;48.220;16.358;2023-09-19T07:26:16;1.70;;;1.60;;
79261;SDS011;68699;48.220;16.358;2023-09-19T07:28:42;1.80;;;1.67;;
79261;SDS011;68699;48.220;16.358;2023-09-19T07:31:08;2.10;;;1.90;;
79261;SDS011;68699;48.220;16.358;2023-09-19T07:33:35;1.80;;;1.63;;
79261;SDS011;68699;48.220;16.358;2023-09-19T07:36:01;3.40;;;1.70;;
79261;SDS011;68699;48.220;16.358;2023-09-19T07:38:27;3.47;;;1.90;;
79261;SDS011;68699;48.220;16.358;2023-09-19T07:40:59;2.17;;;1.60;;
79261;SDS011;68699;48.220;16.358;2023-09-19T07:43:25;2.07;;;1.80;;
79261;SDS011;68699;48.220;16.358;2023-09-19T07:45:51;3.63;;;1.90;;
79261;SDS011;68699;48.220;16.358;2023-09-19T07:48:18;1.73;;;1.63;;
79261;SDS011;68699;48.220;16.358;2023-09-19T07:50:44;2.77;;;2.00;;
79261;SDS011;68699;48.220;16.358;2023-09-19T07:53:10;2.13;;;2.00;;
79261;SDS011;68699;48.220;16.358;2023-09-19T07:55:38;1.80;;;1.63;;
79261;SDS011;68699;48.220;16.358;2023-09-19T07:58:06;4.77;;;2.17;;
79261;SDS011;68699;48.220;16.358;2023-09-19T08:00:32;2.97;;;1.87;;
79261;SDS011;68699;48.220;16.358;2023-09-19T08:03:00;3.17;;;2.17;;
79261;SDS011;68699;48.220;16.358;2023-09-19T08:05:26;1.80;;;1.70;;
79261;SDS011;68699;48.220;16.358;2023-09-19T08:07:52;2.77;;;1.70;;
79261;SDS011;68699;48.220;16.358;2023-09-19T08:10:21;1.70;;;1.60;;
79261;SDS011;68699;48.220;16.358;2023-09-19T08:12:47;3.03;;;2.00;;
79261;SDS011;68699;48.220;16.358;2023-09-19T08:15:19;2.43;;;1.90;;
79261;SDS011;68699;48.220;16.358;2023-09-19T08:17:45;2.27;;;1.63;;
79261;SDS011;68699;48.220;16.358;2023-09-19T08:20:11;2.80;;;1.70;;
79261;SDS011;68699;48.220;16.358;2023-09-19T08:22:47;3.20;;;1.80;;
79261;SDS011;68699;48.220;16.358;2023-09-19T08:25:17;3.43;;;1.93;;
79261;SDS011;68699;48.220;16.358;2023-09-19T08:27:44;2.20;;;1.83;;
79261;SDS011;68699;48.220;16.358;2023-09-19T08:30:15;1.97;;;1.67;;
79261;SDS011;68699;48.220;16.358;2023-09-19T08:32:41;2.93;;;1.80;;
79261;SDS011;68699;48.220;16.358;2023-09-19T08:35:08;2.97;;;1.90;;
79261;SDS011;68699;48.220;16.358;2023-09-19T08:37:34;4.20;;;2.00;;
79261;SDS011;68699;48.220;16.358;2023-09-19T08:40:00;2.13;;;1.80;;
79261;SDS011;68699;48.220;16.358;2023-09-19T08:42:27;2.67;;;1.83;;
79261;SDS011;68699;48.220;16.358;2023-09-19T08:44:53;3.47;;;1.60;;
79261;SDS011;68699;48.220;16.358;2023-09-19T08:47:21;2.50;;;1.90;;
79261;SDS011;68699;48.220;16.358;2023-09-19T08:52:42;2.93;;;2.03;;
79261;SDS011;68699;48.220;16.358;2023-09-19T08:55:12;4.20;;;2.27;;
79261;SDS011;68699;48.220;16.358;2023-09-19T08:57:45;1.77;;;1.67;;
79261;SDS011;68699;48.220;16.358;2023-09-19T09:00:14;3.03;;;1.97;;
79261;SDS011;68699;48.220;16.358;2023-09-19T09:02:42;2.23;;;1.77;;
79261;SDS011;68699;48.220;16.358;2023-09-19T09:05:09;3.17;;;2.13;;
79261;SDS011;68699;48.220;16.358;2023-09-19T09:07:42;2.80;;;1.80;;
79261;SDS011;68699;48.220;16.358;2023-09-19T09:10:09;2.53;;;1.80;;
79261;SDS011;68699;48.220;16.358;2023-09-19T09:12:35;2.27;;;1.73;;
79261;SDS011;68699;48.220;16.358;2023-09-19T09:15:02;1.80;;;1.70;;
79261;SDS011;68699;48.220;16.358;2023-09-19T09:17:29;2.50;;;1.80;;
79261;SDS011;68699;48.220;16.358;2023-09-19T09:19:55;3.37;;;1.80;;
79261;SDS011;68699;48.220;16.358;2023-09-19T09:22:22;1.77;;;1.63;;
79261;SDS011;68699;48.220;16.358;2023-09-19T09:24:56;3.30;;;1.70;;
79261;SDS011;68699;48.220;16.358;2023-09-19T09:27:29;2.93;;;1.70;;
79261;SDS011;68699;48.220;16.358;2023-09-19T09:29:56;2.40;;;1.77;;
79261;SDS011;68699;48.220;16.358;2023-09-19T09:32:26;2.63;;;1.80;;
79261;SDS011;68699;48.220;16.358;2023-09-19T09:34:57;2.17;;;1.90;;
79261;SDS011;68699;48.220;16.358;2023-09-19T09:37:24;2.33;;;1.60;;
79261;SDS011;68699;48.220;16.358;2023-09-19T09:39:55;2.40;;;1.67;;
79261;SDS011;68699;48.220;16.358;2023-09-19T09:42:29;3.93;;;1.70;;
79261;SDS011;68699;48.220;16.358;2023-09-19T09:48:13;1.97;;;1.67;;
79261;SDS011;68699;48.220;16.358;2023-09-19T09:50:45;1.87;;;1.70;;
79261;SDS011;68699;48.220;16.358;2023-09-19T09:53:22;1.73;;;1.63;;
79261;SDS011;68699;48.220;16.358;2023-09-19T09:58:30;2.17;;;1.60;;
79261;SDS011;68699;48.220;16.358;2023-09-19T10:01:00;1.57;;;1.47;;
79261;SDS011;68699;48.220;16.358;2023-09-19T10:03:34;1.70;;;1.60;;
79261;SDS011;68699;48.220;16.358;2023-09-19T10:06:04;1.60;;;1.50;;
79261;SDS011;68699;48.220;16.358;2023-09-19T10:09:02;5.57;;;2.03;;
79261;SDS011;68699;48.220;16.358;2023-09-19T10:12:05;1.60;;;1.50;;
79261;SDS011;68699;48.220;16.358;2023-09-19T10:14:35;1.60;;;1.50;;
79261;SDS011;68699;48.220;16.358;2023-09-19T10:17:04;3.63;;;1.87;;
79261;SDS011;68699;48.220;16.358;2023-09-19T10:19:37;2.10;;;1.90;;
79261;SDS011;68699;48.220;16.358;2023-09-19T10:22:09;2.37;;;2.03;;
79261;SDS011;68699;48.220;16.358;2023-09-19T10:24:37;3.47;;;2.20;;
79261;SDS011;68699;48.220;16.358;2023-09-19T10:27:05;2.60;;;1.90;;
79261;SDS011;68699;48.220;16.358;2023-09-19T10:29:35;2.13;;;1.90;;
79261;SDS011;68699;48.220;16.358;2023-09-19T10:32:02;1.87;;;1.70;;
79261;SDS011;68699;48.220;16.358;2023-09-19T10:34:30;3.43;;;1.67;;
79261;SDS011;68699;48.220;16.358;2023-09-19T10:36:57;2.03;;;1.93;;
79261;SDS011;68699;48.220;16.358;2023-09-19T10:39:23;3.57;;;1.87;;
79261;SDS011;68699;48.220;16.358;2023-09-19T10:41:50;2.40;;;1.80;;
79261;SDS011;68699;48.220;16.358;2023-09-19T10:44:20;1.80;;;1.70;;
79261;SDS011;68699;48.220;16.358;2023-09-19T10:46:48;3.20;;;1.73;;
79261;SDS011;68699;48.220;16.358;2023-09-19T10:49:15;2.90;;;1.50;;
79261;SDS011;68699;48.220;16.358;2023-09-19T10:51:41;2.00;;;1.60;;
79261;SDS011;68699;48.220;16.358;2023-09-19T10:54:10;2.97;;;1.70;;
79261;SDS011;68699;48.220;16.358;2023-09-19T10:56:38;1.73;;;1.63;;
79261;SDS011;68699;48.220;16.358;2023-09-19T10:59:16;1.47;;;1.37;;
79261;SDS011;68699;48.220;16.358;2023-09-19T11:01:59;2.60;;;1.63;;
79261;SDS011;68699;48.220;16.358;2023-09-19T11:04:29;2.00;;;1.77;;
79261;SDS011;68699;48.220;16.358;2023-09-19T11:07:14;1.73;;;1.50;;
79261;SDS011;68699;48.220;16.358;2023-09-19T11:12:11;1.70;;;1.60;;
79261;SDS011;68699;48.220;16.358;2023-09-19T11:14:38;3.10;;;1.60;;
79261;SDS011;68699;48.220;16.358;2023-09-19T11:30:40;2.40;;;1.67;;
79261;SDS011;68699;48.220;16.358;2023-09-19T11:43:51;3.37;;;1.70;;
79261;SDS011;68699;48.220;16.358;2023-09-19T11:46:17;1.87;;;1.60;;
79261;SDS011;68699;48.220;16.358;2023-09-19T11:48:50;2.83;;;1.80;;
79261;SDS011;68699;48.220;16.358;2023-09-19T11:51:17;2.93;;;1.60;;
79261;SDS011;68699;48.220;16.358;2023-09-19T11:53:58;1.63;;;1.30;;
79261;SDS011;68699;48.220;16.358;2023-09-19T11:56:25;1.73;;;1.60;;
79261;SDS011;68699;48.220;16.358;2023-09-19T11:58:53;2.27;;;1.20;;
79261;SDS011;68699;48.220;16.358;2023-09-19T12:03:52;3.20;;;1.37;;
79261;SDS011;68699;48.220;16.358;2023-09-19T12:06:19;3.00;;;1.60;;
79261;SDS011;68699;48.220;16.358;2023-09-19T12:08:46;3.27;;;1.77;;
79261;SDS011;68699;48.220;16.358;2023-09-19T12:11:16;1.50;;;1.40;;
79261;SDS011;68699;48.220;16.358;2023-09-19T12:13:44;3.40;;;1.60;;
79261;SDS011;68699;48.220;16.358;2023-09-19T12:16:11;2.17;;;1.80;;
79261;SDS011;68699;48.220;16.358;2023-09-19T12:18:40;1.60;;;1.50;;
79261;SDS011;68699;48.220;16.358;2023-09-19T12:26:44;1.40;;;1.30;;
79261;SDS011;68699;48.220;16.358;2023-09-19T12:29:13;1.90;;;1.60;;
79261;SDS011;68699;48.220;16.358;2023-09-19T12:31:53;2.10;;;1.33;;
79261;SDS011;68699;48.220;16.358;2023-09-19T12:34:29;2.60;;;1.70;;
79261;SDS011;68699;48.220;16.358;2023-09-19T12:39:43;2.00;;;1.90;;
79261;SDS011;68699;48.220;16.358;2023-09-19T12:42:16;3.07;;;1.10;;
79261;SDS011;68699;48.220;16.358;2023-09-19T12:44:46;2.70;;;1.40;;
79261;SDS011;68699;48.220;16.358;2023-09-19T12:47:16;1.47;;;1.17;;
79261;SDS011;68699;48.220;16.358;2023-09-19T12:52:33;3.37;;;1.70;;
79261;SDS011;68699;48.220;16.358;2023-09-19T12:55:00;3.88;;;1.60;;
79261;SDS011;68699;48.220;16.358;2023-09-19T12:57:29;2.40;;;1.60;;
79261;SDS011;68699;48.220;16.358;2023-09-19T13:00:00;3.00;;;1.40;;
79261;SDS011;68699;48.220;16.358;2023-09-19T13:02:26;2.75;;;1.50;;
79261;SDS011;68699;48.220;16.358;2023-09-19T13:04:53;1.75;;;1.30;;
79261;SDS011;68699;48.220;16.358;2023-09-19T13:07:40;2.00;;;1.20;;
79261;SDS011;68699;48.220;16.358;2023-09-19T13:10:10;2.13;;;1.40;;
79261;SDS011;68699;48.220;16.358;2023-09-19T13:12:38;2.72;;;1.50;;
79261;SDS011;68699;48.220;16.358;2023-09-19T13:15:11;3.83;;;1.40;;
79261;SDS011;68699;48.220;16.358;2023-09-19T13:17:43;2.17;;;1.30;;
79261;SDS011;68699;48.220;16.358;2023-09-19T13:20:20;1.65;;;1.30;;
79261;SDS011;68699;48.220;16.358;2023-09-19T13:22:52;1.40;;;1.30;;
79261;SDS011;68699;48.220;16.358;2023-09-19T13:25:25;1.20;;;1.08;;
79261;SDS011;68699;48.220;16.358;2023-09-19T13:27:53;3.07;;;1.30;;
79261;SDS011;68699;48.220;16.358;2023-09-19T13:30:22;1.35;;;1.20;;
79261;SDS011;68699;48.220;16.358;2023-09-19T13:32:50;1.40;;;1.30;;
79261;SDS011;68699;48.220;16.358;2023-09-19T13:35:16;1.63;;;1.50;;
79261;SDS011;68699;48.220;16.358;2023-09-19T13:37:42;3.42;;;1.70;;
79261;SDS011;68699;48.220;16.358;2023-09-19T13:40:12;2.17;;;1.35;;
79261;SDS011;68699;48.220;16.358;2023-09-19T13:42:39;1.52;;;1.10;;
79261;SDS011;68699;48.220;16.358;2023-09-19T13:45:05;1.15;;;1.10;;
79261;SDS011;68699;48.220;16.358;2023-09-19T13:47:32;1.80;;;1.50;;
79261;SDS011;68699;48.220;16.358;2023-09-19T13:49:58;2.08;;;1.20;;
79261;SDS011;68699;48.220;16.358;2023-09-19T13:52:25;3.33;;;1.80;;
79261;SDS011;68699;48.220;16.358;2023-09-19T13:54:53;1.13;;;1.03;;
79261;SDS011;68699;48.220;16.358;2023-09-19T13:57:22;2.20;;;1.30;;
79261;SDS011;68699;48.220;16.358;2023-09-19T13:59:48;1.63;;;1.53;;
79261;SDS011;68699;48.220;16.358;2023-09-19T14:02:14;1.60;;;1.00;;
79261;SDS011;68699;48.220;16.358;2023-09-19T14:04:43;1.23;;;1.17;;
79261;SDS011;68699;48.220;16.358;2023-09-19T14:07:09;1.53;;;1.20;;
79261;SDS011;68699;48.220;16.358;2023-09-19T14:09:35;1.23;;;1.13;;
79261;SDS011;68699;48.220;16.358;2023-09-19T14:12:02;1.90;;;1.40;;
79261;SDS011;68699;48.220;16.358;2023-09-19T14:14:28;1.60;;;1.40;;
79261;SDS011;68699;48.220;16.358;2023-09-19T14:16:54;4.13;;;1.33;;
79261;SDS011;68699;48.220;16.358;2023-09-19T14:19:20;1.20;;;1.10;;
79261;SDS011;68699;48.220;16.358;2023-09-19T14:21:46;2.10;;;1.30;;
79261;SDS011;68699;48.220;16.358;2023-09-19T14:24:18;1.63;;;1.20;;
79261;SDS011;68699;48.220;16.358;2023-09-19T14:26:45;1.30;;;1.20;;
79261;SDS011;68699;48.220;16.358;2023-09-19T14:29:11;1.50;;;1.20;;
79261;SDS011;68699;48.220;16.358;2023-09-19T14:31:38;1.70;;;1.10;;
79261;SDS011;68699;48.220;16.358;2023-09-19T14:34:05;4.33;;;1.20;;
79261;SDS011;68699;48.220;16.358;2023-09-19T14:36:31;1.53;;;1.10;;
79261;SDS011;68699;48.220;16.358;2023-09-19T14:38:58;2.63;;;1.20;;
79261;SDS011;68699;48.220;16.358;2023-09-19T14:41:24;1.67;;;1.27;;
79261;SDS011;68699;48.220;16.358;2023-09-19T14:43:53;1.40;;;1.20;;
79261;SDS011;68699;48.220;16.358;2023-09-19T14:46:20;1.53;;;1.20;;
79261;SDS011;68699;48.220;16.358;2023-09-19T14:48:46;1.90;;;1.30;;
79261;SDS011;68699;48.220;16.358;2023-09-19T14:51:13;1.13;;;1.00;;
79261;SDS011;68699;48.220;16.358;2023-09-19T14:53:39;1.30;;;1.20;;
79261;SDS011;68699;48.220;16.358;2023-09-19T14:56:09;1.77;;;1.27;;
79261;SDS011;68699;48.220;16.358;2023-09-19T14:58:36;1.57;;;1.20;;
79261;SDS011;68699;48.220;16.358;2023-09-19T15:01:05;3.00;;;1.50;;
79261;SDS011;68699;48.220;16.358;2023-09-19T15:03:33;1.50;;;1.40;;
79261;SDS011;68699;48.220;16.358;2023-09-19T15:06:04;2.00;;;1.20;;
79261;SDS011;68699;48.220;16.358;2023-09-19T15:08:31;1.20;;;1.10;;
79261;SDS011;68699;48.220;16.358;2023-09-19T15:10:59;1.50;;;1.37;;
79261;SDS011;68699;48.220;16.358;2023-09-19T15:13:29;1.53;;;1.43;;
79261;SDS011;68699;48.220;16.358;2023-09-19T15:15:59;2.73;;;1.30;;
79261;SDS011;68699;48.220;16.358;2023-09-19T15:18:26;1.83;;;1.27;;
79261;SDS011;68699;48.220;16.358;2023-09-19T15:20:53;1.57;;;1.27;;
79261;SDS011;68699;48.220;16.358;2023-09-19T15:23:20;1.90;;;1.30;;
79261;SDS011;68699;48.220;16.358;2023-09-19T15:25:49;1.60;;;1.50;;
79261;SDS011;68699;48.220;16.358;2023-09-19T15:28:16;1.40;;;1.30;;
79261;SDS011;68699;48.220;16.358;2023-09-19T15:30:45;1.23;;;1.00;;
79261;SDS011;68699;48.220;16.358;2023-09-19T15:33:30;1.30;;;1.20;;
79261;SDS011;68699;48.220;16.358;2023-09-19T15:36:06;1.60;;;1.50;;
79261;SDS011;68699;48.220;16.358;2023-09-19T15:38:55;1.40;;;1.30;;
79261;SDS011;68699;48.220;16.358;2023-09-19T15:41:19;1.33;;;1.23;;
79261;SDS011;68699;48.220;16.358;2023-09-19T15:43:46;1.50;;;1.40;;
79261;SDS011;68699;48.220;16.358;2023-09-19T15:46:12;1.60;;;1.20;;